Bow, United Kingdom
Current Conditions -  °F | °C
As of 4:50 AM on Tuesday 21 Oct 2014 (Local Time) from EGLC Reporting Station
Broken Clouds Broken Clouds  
Wind Chill: 14°   Ceiling: 3500
Heat Index: 14°   Visibility: 6mi
Dew Point: 11°   Wind: 14mph
Humidity: 82%   Direction: 230°SW
Pressure: 29.68"   Gusts: NA
Location:  51.53°N, 0.03°W
Report Text: EGLC 210350Z AUTO 23012KT 9999 FEW016/// BKN035/// 14/11 Q1005
Loading
Personal Weather Stations






























Interactive Weather Map
Tropical Storm Tracking
New forecast layout! Learn more

10-Day Weather Forecast

Advertisements
Track Severe Weather on mobile